sensor_id;sensor_type;location;lat;lon;timestamp;P1;durP1;ratioP1;P2;durP2;ratioP2
769;SDS011;368;48.698;9.116;2023-04-15T00:02:13;6.63;;;3.40;;
769;SDS011;368;48.698;9.116;2023-04-15T00:04:43;5.63;;;3.20;;
769;SDS011;368;48.698;9.116;2023-04-15T00:07:11;4.40;;;2.90;;
769;SDS011;368;48.698;9.116;2023-04-15T00:09:39;5.83;;;3.67;;
769;SDS011;368;48.698;9.116;2023-04-15T00:12:06;6.43;;;3.30;;
769;SDS011;368;48.698;9.116;2023-04-15T00:14:34;4.00;;;3.30;;
769;SDS011;368;48.698;9.116;2023-04-15T00:17:01;5.40;;;3.27;;
769;SDS011;368;48.698;9.116;2023-04-15T00:19:28;6.13;;;3.63;;
769;SDS011;368;48.698;9.116;2023-04-15T00:21:55;5.20;;;3.40;;
769;SDS011;368;48.698;9.116;2023-04-15T00:24:23;4.53;;;3.37;;
769;SDS011;368;48.698;9.116;2023-04-15T00:26:50;6.00;;;2.97;;
769;SDS011;368;48.698;9.116;2023-04-15T00:29:17;5.40;;;3.60;;
769;SDS011;368;48.698;9.116;2023-04-15T00:31:44;4.07;;;2.90;;
769;SDS011;368;48.698;9.116;2023-04-15T00:34:11;4.63;;;3.13;;
769;SDS011;368;48.698;9.116;2023-04-15T00:36:38;5.93;;;3.70;;
769;SDS011;368;48.698;9.116;2023-04-15T00:39:05;4.50;;;3.37;;
769;SDS011;368;48.698;9.116;2023-04-15T00:41:33;6.20;;;4.13;;
769;SDS011;368;48.698;9.116;2023-04-15T00:44:03;4.53;;;2.90;;
769;SDS011;368;48.698;9.116;2023-04-15T00:46:30;6.60;;;2.93;;
769;SDS011;368;48.698;9.116;2023-04-15T00:49:00;4.80;;;3.40;;
769;SDS011;368;48.698;9.116;2023-04-15T00:51:29;7.60;;;3.87;;
769;SDS011;368;48.698;9.116;2023-04-15T00:53:57;6.00;;;3.00;;
769;SDS011;368;48.698;9.116;2023-04-15T00:56:24;4.83;;;3.27;;
769;SDS011;368;48.698;9.116;2023-04-15T00:58:53;4.57;;;3.43;;
769;SDS011;368;48.698;9.116;2023-04-15T01:01:20;6.90;;;3.80;;
769;SDS011;368;48.698;9.116;2023-04-15T01:03:49;3.90;;;3.50;;
769;SDS011;368;48.698;9.116;2023-04-15T01:06:17;3.80;;;3.10;;
769;SDS011;368;48.698;9.116;2023-04-15T01:08:43;4.97;;;3.40;;
769;SDS011;368;48.698;9.116;2023-04-15T01:11:11;3.67;;;2.70;;
769;SDS011;368;48.698;9.116;2023-04-15T01:13:38;3.50;;;3.20;;
769;SDS011;368;48.698;9.116;2023-04-15T01:16:07;3.07;;;2.73;;
769;SDS011;368;48.698;9.116;2023-04-15T01:18:34;4.43;;;3.00;;
769;SDS011;368;48.698;9.116;2023-04-15T01:21:03;3.40;;;3.07;;
769;SDS011;368;48.698;9.116;2023-04-15T01:23:31;3.33;;;3.00;;
769;SDS011;368;48.698;9.116;2023-04-15T01:26:00;3.83;;;3.17;;
769;SDS011;368;48.698;9.116;2023-04-15T01:28:28;4.50;;;3.10;;
769;SDS011;368;48.698;9.116;2023-04-15T01:31:05;4.10;;;3.20;;
769;SDS011;368;48.698;9.116;2023-04-15T01:33:32;10.13;;;3.53;;
769;SDS011;368;48.698;9.116;2023-04-15T01:35:59;5.50;;;3.30;;
769;SDS011;368;48.698;9.116;2023-04-15T01:38:26;5.23;;;3.30;;
769;SDS011;368;48.698;9.116;2023-04-15T01:40:55;3.97;;;3.40;;
769;SDS011;368;48.698;9.116;2023-04-15T01:43:24;4.23;;;3.00;;
769;SDS011;368;48.698;9.116;2023-04-15T01:45:52;4.57;;;3.20;;
769;SDS011;368;48.698;9.116;2023-04-15T01:48:19;4.87;;;3.57;;
769;SDS011;368;48.698;9.116;2023-04-15T01:50:46;7.17;;;3.60;;
769;SDS011;368;48.698;9.116;2023-04-15T01:53:12;3.73;;;3.43;;
769;SDS011;368;48.698;9.116;2023-04-15T01:55:40;3.93;;;3.20;;
769;SDS011;368;48.698;9.116;2023-04-15T01:58:08;5.17;;;3.57;;
769;SDS011;368;48.698;9.116;2023-04-15T02:00:36;4.10;;;3.40;;
769;SDS011;368;48.698;9.116;2023-04-15T02:03:03;3.80;;;3.40;;
769;SDS011;368;48.698;9.116;2023-04-15T02:05:30;6.53;;;3.33;;
769;SDS011;368;48.698;9.116;2023-04-15T02:07:57;3.80;;;3.40;;
769;SDS011;368;48.698;9.116;2023-04-15T02:10:24;4.57;;;3.40;;
769;SDS011;368;48.698;9.116;2023-04-15T02:12:51;7.30;;;6.60;;
769;SDS011;368;48.698;9.116;2023-04-15T02:15:18;7.33;;;4.27;;
769;SDS011;368;48.698;9.116;2023-04-15T02:17:46;4.60;;;4.07;;
769;SDS011;368;48.698;9.116;2023-04-15T02:20:15;4.23;;;3.80;;
769;SDS011;368;48.698;9.116;2023-04-15T02:22:42;6.73;;;5.90;;
769;SDS011;368;48.698;9.116;2023-04-15T02:25:08;4.20;;;3.90;;
769;SDS011;368;48.698;9.116;2023-04-15T02:27:35;6.97;;;4.03;;
769;SDS011;368;48.698;9.116;2023-04-15T02:30:02;4.80;;;4.20;;
769;SDS011;368;48.698;9.116;2023-04-15T02:32:31;5.50;;;4.40;;
769;SDS011;368;48.698;9.116;2023-04-15T02:35:02;4.93;;;4.40;;
769;SDS011;368;48.698;9.116;2023-04-15T02:37:29;6.03;;;4.27;;
769;SDS011;368;48.698;9.116;2023-04-15T02:40:01;4.20;;;3.43;;
769;SDS011;368;48.698;9.116;2023-04-15T02:42:28;5.33;;;4.43;;
769;SDS011;368;48.698;9.116;2023-04-15T02:44:56;4.70;;;3.70;;
769;SDS011;368;48.698;9.116;2023-04-15T02:47:22;4.47;;;3.37;;
769;SDS011;368;48.698;9.116;2023-04-15T02:49:49;4.30;;;3.30;;
769;SDS011;368;48.698;9.116;2023-04-15T02:52:17;5.07;;;4.20;;
769;SDS011;368;48.698;9.116;2023-04-15T02:54:44;6.53;;;5.37;;
769;SDS011;368;48.698;9.116;2023-04-15T02:57:11;6.00;;;4.33;;
769;SDS011;368;48.698;9.116;2023-04-15T02:59:38;5.93;;;4.20;;
769;SDS011;368;48.698;9.116;2023-04-15T03:02:05;4.43;;;4.00;;
769;SDS011;368;48.698;9.116;2023-04-15T03:04:32;10.00;;;4.90;;
769;SDS011;368;48.698;9.116;2023-04-15T03:07:00;6.37;;;4.13;;
769;SDS011;368;48.698;9.116;2023-04-15T03:09:28;8.00;;;5.13;;
769;SDS011;368;48.698;9.116;2023-04-15T03:11:56;6.03;;;4.50;;
769;SDS011;368;48.698;9.116;2023-04-15T03:14:23;5.77;;;5.17;;
769;SDS011;368;48.698;9.116;2023-04-15T03:16:51;4.73;;;4.30;;
769;SDS011;368;48.698;9.116;2023-04-15T03:19:17;3.67;;;3.37;;
769;SDS011;368;48.698;9.116;2023-04-15T03:21:44;5.93;;;2.97;;
769;SDS011;368;48.698;9.116;2023-04-15T03:24:11;5.23;;;3.90;;
769;SDS011;368;48.698;9.116;2023-04-15T03:26:39;4.57;;;4.18;;
769;SDS011;368;48.698;9.116;2023-04-15T03:29:06;6.20;;;4.45;;
769;SDS011;368;48.698;9.116;2023-04-15T03:31:32;5.30;;;4.30;;
769;SDS011;368;48.698;9.116;2023-04-15T03:33:59;5.57;;;5.07;;
769;SDS011;368;48.698;9.116;2023-04-15T03:36:27;4.60;;;4.10;;
769;SDS011;368;48.698;9.116;2023-04-15T03:38:56;4.77;;;3.80;;
769;SDS011;368;48.698;9.116;2023-04-15T03:41:23;7.60;;;4.20;;
769;SDS011;368;48.698;9.116;2023-04-15T03:43:51;6.93;;;4.40;;
769;SDS011;368;48.698;9.116;2023-04-15T03:46:18;5.83;;;4.70;;
769;SDS011;368;48.698;9.116;2023-04-15T03:48:45;6.88;;;4.53;;
769;SDS011;368;48.698;9.116;2023-04-15T03:51:12;6.93;;;4.60;;
769;SDS011;368;48.698;9.116;2023-04-15T03:53:39;4.77;;;4.10;;
769;SDS011;368;48.698;9.116;2023-04-15T03:56:06;4.90;;;4.50;;
769;SDS011;368;48.698;9.116;2023-04-15T03:58:33;5.33;;;4.17;;
769;SDS011;368;48.698;9.116;2023-04-15T04:01:01;7.50;;;4.43;;
769;SDS011;368;48.698;9.116;2023-04-15T04:03:28;7.60;;;3.97;;
769;SDS011;368;48.698;9.116;2023-04-15T04:05:54;7.17;;;5.10;;
769;SDS011;368;48.698;9.116;2023-04-15T04:08:21;6.23;;;4.50;;
769;SDS011;368;48.698;9.116;2023-04-15T04:10:48;6.00;;;3.53;;
769;SDS011;368;48.698;9.116;2023-04-15T04:13:15;5.30;;;4.20;;
769;SDS011;368;48.698;9.116;2023-04-15T04:15:42;5.70;;;4.53;;
769;SDS011;368;48.698;9.116;2023-04-15T04:18:10;4.78;;;3.88;;
769;SDS011;368;48.698;9.116;2023-04-15T04:20:36;8.23;;;4.25;;
769;SDS011;368;48.698;9.116;2023-04-15T04:23:03;5.50;;;4.30;;
769;SDS011;368;48.698;9.116;2023-04-15T04:25:30;14.43;;;11.10;;
769;SDS011;368;48.698;9.116;2023-04-15T04:27:57;12.77;;;10.73;;
769;SDS011;368;48.698;9.116;2023-04-15T04:30:24;6.73;;;6.10;;
769;SDS011;368;48.698;9.116;2023-04-15T04:32:50;13.00;;;5.63;;
769;SDS011;368;48.698;9.116;2023-04-15T04:35:19;9.10;;;6.00;;
769;SDS011;368;48.698;9.116;2023-04-15T04:37:46;7.13;;;4.13;;
769;SDS011;368;48.698;9.116;2023-04-15T04:40:13;7.43;;;4.13;;
769;SDS011;368;48.698;9.116;2023-04-15T04:42:40;6.00;;;4.27;;
769;SDS011;368;48.698;9.116;2023-04-15T04:45:07;6.27;;;4.60;;
769;SDS011;368;48.698;9.116;2023-04-15T04:47:35;6.97;;;4.87;;
769;SDS011;368;48.698;9.116;2023-04-15T04:50:01;6.70;;;3.85;;
769;SDS011;368;48.698;9.116;2023-04-15T04:52:30;5.70;;;4.40;;
769;SDS011;368;48.698;9.116;2023-04-15T04:54:57;5.63;;;4.70;;
769;SDS011;368;48.698;9.116;2023-04-15T04:57:24;9.53;;;4.80;;
769;SDS011;368;48.698;9.116;2023-04-15T04:59:51;10.57;;;5.70;;
769;SDS011;368;48.698;9.116;2023-04-15T05:02:18;5.10;;;4.13;;
769;SDS011;368;48.698;9.116;2023-04-15T05:04:45;11.17;;;4.30;;
769;SDS011;368;48.698;9.116;2023-04-15T05:07:12;5.50;;;4.90;;
769;SDS011;368;48.698;9.116;2023-04-15T05:09:40;8.13;;;6.87;;
769;SDS011;368;48.698;9.116;2023-04-15T05:12:07;9.37;;;6.97;;
769;SDS011;368;48.698;9.116;2023-04-15T05:14:38;9.23;;;5.90;;
769;SDS011;368;48.698;9.116;2023-04-15T05:17:05;7.90;;;7.10;;
769;SDS011;368;48.698;9.116;2023-04-15T05:19:32;10.37;;;9.17;;
769;SDS011;368;48.698;9.116;2023-04-15T05:21:59;7.57;;;6.20;;
769;SDS011;368;48.698;9.116;2023-04-15T05:24:26;7.77;;;4.83;;
769;SDS011;368;48.698;9.116;2023-04-15T05:26:55;5.77;;;4.73;;
769;SDS011;368;48.698;9.116;2023-04-15T05:29:22;7.57;;;5.10;;
769;SDS011;368;48.698;9.116;2023-04-15T05:31:49;4.23;;;3.83;;
769;SDS011;368;48.698;9.116;2023-04-15T05:34:16;5.00;;;4.43;;
769;SDS011;368;48.698;9.116;2023-04-15T05:36:43;6.43;;;4.43;;
769;SDS011;368;48.698;9.116;2023-04-15T05:39:09;5.20;;;4.63;;
769;SDS011;368;48.698;9.116;2023-04-15T05:41:36;6.47;;;5.40;;
769;SDS011;368;48.698;9.116;2023-04-15T05:44:05;7.07;;;4.53;;
769;SDS011;368;48.698;9.116;2023-04-15T05:46:32;6.27;;;4.60;;
769;SDS011;368;48.698;9.116;2023-04-15T05:48:58;4.43;;;3.97;;
769;SDS011;368;48.698;9.116;2023-04-15T05:51:25;4.30;;;3.90;;
769;SDS011;368;48.698;9.116;2023-04-15T05:53:52;4.07;;;3.67;;
769;SDS011;368;48.698;9.116;2023-04-15T05:56:19;5.13;;;4.23;;
769;SDS011;368;48.698;9.116;2023-04-15T05:58:46;11.10;;;8.20;;
769;SDS011;368;48.698;9.116;2023-04-15T06:01:15;13.73;;;11.37;;
769;SDS011;368;48.698;9.116;2023-04-15T06:03:42;13.30;;;9.60;;
769;SDS011;368;48.698;9.116;2023-04-15T06:06:09;9.07;;;8.13;;
769;SDS011;368;48.698;9.116;2023-04-15T06:08:36;8.73;;;6.60;;
769;SDS011;368;48.698;9.116;2023-04-15T06:11:03;4.97;;;4.47;;
769;SDS011;368;48.698;9.116;2023-04-15T06:13:30;10.43;;;8.10;;
769;SDS011;368;48.698;9.116;2023-04-15T06:15:56;9.80;;;8.10;;
769;SDS011;368;48.698;9.116;2023-04-15T06:18:25;18.93;;;15.10;;
769;SDS011;368;48.698;9.116;2023-04-15T06:20:51;14.37;;;12.17;;
769;SDS011;368;48.698;9.116;2023-04-15T06:23:18;9.30;;;7.50;;
769;SDS011;368;48.698;9.116;2023-04-15T06:25:45;8.87;;;5.83;;
769;SDS011;368;48.698;9.116;2023-04-15T06:28:12;9.53;;;5.37;;
769;SDS011;368;48.698;9.116;2023-04-15T06:30:38;6.70;;;5.00;;
769;SDS011;368;48.698;9.116;2023-04-15T06:33:05;5.90;;;4.70;;
769;SDS011;368;48.698;9.116;2023-04-15T06:35:33;6.50;;;5.00;;
769;SDS011;368;48.698;9.116;2023-04-15T06:38:00;7.47;;;5.43;;
769;SDS011;368;48.698;9.116;2023-04-15T06:40:27;5.53;;;4.00;;
769;SDS011;368;48.698;9.116;2023-04-15T06:42:54;6.30;;;3.93;;
769;SDS011;368;48.698;9.116;2023-04-15T06:45:21;5.50;;;3.70;;
769;SDS011;368;48.698;9.116;2023-04-15T06:47:48;5.33;;;3.30;;
769;SDS011;368;48.698;9.116;2023-04-15T06:50:15;3.40;;;3.07;;
769;SDS011;368;48.698;9.116;2023-04-15T06:52:44;3.43;;;2.43;;
769;SDS011;368;48.698;9.116;2023-04-15T06:55:11;6.87;;;3.40;;
769;SDS011;368;48.698;9.116;2023-04-15T06:57:38;13.10;;;8.40;;
769;SDS011;368;48.698;9.116;2023-04-15T07:00:06;11.00;;;9.23;;
769;SDS011;368;48.698;9.116;2023-04-15T07:02:35;4.30;;;3.00;;
769;SDS011;368;48.698;9.116;2023-04-15T07:05:02;4.53;;;3.00;;
769;SDS011;368;48.698;9.116;2023-04-15T07:07:29;2.37;;;2.10;;
769;SDS011;368;48.698;9.116;2023-04-15T07:09:58;3.53;;;2.70;;
769;SDS011;368;48.698;9.116;2023-04-15T07:12:26;4.50;;;2.80;;
769;SDS011;368;48.698;9.116;2023-04-15T07:14:53;3.57;;;2.63;;
769;SDS011;368;48.698;9.116;2023-04-15T07:17:20;7.20;;;5.60;;
769;SDS011;368;48.698;9.116;2023-04-15T07:19:46;4.40;;;4.00;;
769;SDS011;368;48.698;9.116;2023-04-15T07:22:13;2.70;;;2.50;;
769;SDS011;368;48.698;9.116;2023-04-15T07:24:40;2.93;;;2.40;;
769;SDS011;368;48.698;9.116;2023-04-15T07:27:08;4.10;;;3.10;;
769;SDS011;368;48.698;9.116;2023-04-15T07:29:35;5.13;;;3.33;;
769;SDS011;368;48.698;9.116;2023-04-15T07:32:02;4.83;;;3.20;;
769;SDS011;368;48.698;9.116;2023-04-15T07:34:29;6.20;;;3.63;;
769;SDS011;368;48.698;9.116;2023-04-15T07:36:56;3.80;;;3.10;;
769;SDS011;368;48.698;9.116;2023-04-15T07:39:22;4.30;;;2.60;;
769;SDS011;368;48.698;9.116;2023-04-15T07:41:49;5.50;;;3.40;;
769;SDS011;368;48.698;9.116;2023-04-15T07:44:18;4.40;;;3.13;;
769;SDS011;368;48.698;9.116;2023-04-15T07:46:45;3.57;;;2.70;;
769;SDS011;368;48.698;9.116;2023-04-15T07:49:12;4.10;;;3.03;;
769;SDS011;368;48.698;9.116;2023-04-15T07:51:39;4.03;;;2.97;;
769;SDS011;368;48.698;9.116;2023-04-15T07:54:06;5.47;;;3.30;;
769;SDS011;368;48.698;9.116;2023-04-15T07:56:33;5.50;;;3.00;;
769;SDS011;368;48.698;9.116;2023-04-15T07:59:00;4.07;;;3.00;;
769;SDS011;368;48.698;9.116;2023-04-15T08:01:30;4.30;;;3.03;;
769;SDS011;368;48.698;9.116;2023-04-15T08:03:58;4.63;;;3.17;;
769;SDS011;368;48.698;9.116;2023-04-15T08:06:24;5.70;;;3.20;;
769;SDS011;368;48.698;9.116;2023-04-15T08:08:51;4.30;;;3.33;;
769;SDS011;368;48.698;9.116;2023-04-15T08:11:18;4.73;;;3.27;;
769;SDS011;368;48.698;9.116;2023-04-15T08:13:45;5.50;;;3.80;;
769;SDS011;368;48.698;9.116;2023-04-15T08:16:13;5.23;;;3.60;;
769;SDS011;368;48.698;9.116;2023-04-15T08:18:44;8.03;;;4.27;;
769;SDS011;368;48.698;9.116;2023-04-15T08:21:11;6.00;;;3.80;;
769;SDS011;368;48.698;9.116;2023-04-15T08:23:38;9.60;;;4.07;;
769;SDS011;368;48.698;9.116;2023-04-15T08:26:05;4.60;;;4.10;;
769;SDS011;368;48.698;9.116;2023-04-15T08:28:32;5.13;;;4.27;;
769;SDS011;368;48.698;9.116;2023-04-15T08:30:59;5.80;;;4.30;;
769;SDS011;368;48.698;9.116;2023-04-15T08:33:26;7.27;;;4.20;;
769;SDS011;368;48.698;9.116;2023-04-15T08:35:56;15.93;;;4.70;;
769;SDS011;368;48.698;9.116;2023-04-15T08:38:22;5.50;;;4.00;;
769;SDS011;368;48.698;9.116;2023-04-15T08:40:49;5.57;;;5.00;;
769;SDS011;368;48.698;9.116;2023-04-15T08:43:17;7.20;;;4.77;;
769;SDS011;368;48.698;9.116;2023-04-15T08:45:48;8.20;;;5.33;;
769;SDS011;368;48.698;9.116;2023-04-15T08:48:17;8.23;;;5.50;;
769;SDS011;368;48.698;9.116;2023-04-15T08:50:45;7.77;;;4.77;;
769;SDS011;368;48.698;9.116;2023-04-15T08:53:14;5.93;;;3.63;;
769;SDS011;368;48.698;9.116;2023-04-15T08:55:41;4.80;;;4.40;;
769;SDS011;368;48.698;9.116;2023-04-15T08:58:11;9.90;;;5.10;;
769;SDS011;368;48.698;9.116;2023-04-15T09:00:38;4.33;;;3.93;;
769;SDS011;368;48.698;9.116;2023-04-15T09:03:07;4.33;;;3.17;;
769;SDS011;368;48.698;9.116;2023-04-15T09:05:34;5.23;;;3.70;;
769;SDS011;368;48.698;9.116;2023-04-15T09:08:02;3.83;;;2.87;;
769;SDS011;368;48.698;9.116;2023-04-15T09:10:33;3.93;;;2.47;;
769;SDS011;368;48.698;9.116;2023-04-15T09:13:00;4.50;;;2.40;;
769;SDS011;368;48.698;9.116;2023-04-15T09:15:27;3.00;;;2.70;;
769;SDS011;368;48.698;9.116;2023-04-15T09:17:54;4.00;;;2.50;;
769;SDS011;368;48.698;9.116;2023-04-15T09:20:21;3.00;;;2.00;;
769;SDS011;368;48.698;9.116;2023-04-15T09:22:48;3.20;;;2.10;;
769;SDS011;368;48.698;9.116;2023-04-15T09:25:26;4.00;;;1.97;;
769;SDS011;368;48.698;9.116;2023-04-15T09:27:56;2.80;;;1.97;;
769;SDS011;368;48.698;9.116;2023-04-15T09:30:25;4.70;;;2.13;;
769;SDS011;368;48.698;9.116;2023-04-15T09:32:53;6.67;;;1.83;;
769;SDS011;368;48.698;9.116;2023-04-15T09:35:22;2.17;;;1.77;;
769;SDS011;368;48.698;9.116;2023-04-15T09:37:49;3.40;;;1.70;;
769;SDS011;368;48.698;9.116;2023-04-15T09:40:29;2.77;;;1.47;;
769;SDS011;368;48.698;9.116;2023-04-15T09:42:58;2.33;;;1.93;;
769;SDS011;368;48.698;9.116;2023-04-15T09:45:26;3.07;;;1.93;;
769;SDS011;368;48.698;9.116;2023-04-15T09:47:54;4.20;;;1.77;;
769;SDS011;368;48.698;9.116;2023-04-15T09:50:22;2.80;;;1.77;;
769;SDS011;368;48.698;9.116;2023-04-15T09:52:53;2.50;;;2.10;;
769;SDS011;368;48.698;9.116;2023-04-15T09:55:20;5.33;;;1.97;;
769;SDS011;368;48.698;9.116;2023-04-15T09:57:47;4.43;;;2.50;;
769;SDS011;368;48.698;9.116;2023-04-15T10:00:16;2.40;;;1.90;;
769;SDS011;368;48.698;9.116;2023-04-15T10:02:42;2.73;;;2.03;;
769;SDS011;368;48.698;9.116;2023-04-15T10:05:13;3.03;;;2.17;;
769;SDS011;368;48.698;9.116;2023-04-15T10:07:40;4.07;;;2.30;;
769;SDS011;368;48.698;9.116;2023-04-15T10:10:08;2.90;;;2.43;;
769;SDS011;368;48.698;9.116;2023-04-15T10:12:36;3.03;;;2.50;;
769;SDS011;368;48.698;9.116;2023-04-15T10:15:04;3.70;;;2.70;;
769;SDS011;368;48.698;9.116;2023-04-15T10:17:33;4.57;;;2.60;;
769;SDS011;368;48.698;9.116;2023-04-15T10:20:01;3.57;;;3.23;;
769;SDS011;368;48.698;9.116;2023-04-15T10:22:29;3.07;;;2.77;;
769;SDS011;368;48.698;9.116;2023-04-15T10:24:57;4.20;;;2.30;;
769;SDS011;368;48.698;9.116;2023-04-15T10:27:25;2.70;;;2.03;;
769;SDS011;368;48.698;9.116;2023-04-15T10:29:53;5.13;;;3.20;;
769;SDS011;368;48.698;9.116;2023-04-15T10:32:20;3.53;;;2.10;;
769;SDS011;368;48.698;9.116;2023-04-15T10:34:49;4.50;;;3.33;;
769;SDS011;368;48.698;9.116;2023-04-15T10:37:21;3.87;;;2.57;;
769;SDS011;368;48.698;9.116;2023-04-15T10:39:58;5.03;;;2.67;;
769;SDS011;368;48.698;9.116;2023-04-15T10:42:32;3.23;;;2.87;;
769;SDS011;368;48.698;9.116;2023-04-15T10:44:59;2.70;;;2.50;;
769;SDS011;368;48.698;9.116;2023-04-15T10:47:26;5.90;;;3.20;;
769;SDS011;368;48.698;9.116;2023-04-15T10:49:57;3.80;;;3.43;;
769;SDS011;368;48.698;9.116;2023-04-15T10:52:27;6.37;;;3.57;;
769;SDS011;368;48.698;9.116;2023-04-15T10:55:01;4.27;;;3.20;;
769;SDS011;368;48.698;9.116;2023-04-15T10:57:33;3.03;;;2.73;;
769;SDS011;368;48.698;9.116;2023-04-15T11:00:10;3.63;;;3.33;;
769;SDS011;368;48.698;9.116;2023-04-15T11:02:39;5.77;;;3.47;;
769;SDS011;368;48.698;9.116;2023-04-15T11:05:09;4.80;;;3.70;;
769;SDS011;368;48.698;9.116;2023-04-15T11:07:37;5.17;;;3.20;;
769;SDS011;368;48.698;9.116;2023-04-15T11:13:26;8.60;;;4.17;;
769;SDS011;368;48.698;9.116;2023-04-15T11:15:56;4.40;;;3.90;;
769;SDS011;368;48.698;9.116;2023-04-15T11:18:26;5.37;;;4.23;;
769;SDS011;368;48.698;9.116;2023-04-15T11:20:57;7.87;;;4.13;;
769;SDS011;368;48.698;9.116;2023-04-15T11:23:29;3.60;;;3.30;;
769;SDS011;368;48.698;9.116;2023-04-15T11:25:58;5.03;;;4.53;;
769;SDS011;368;48.698;9.116;2023-04-15T11:28:28;4.60;;;4.20;;
769;SDS011;368;48.698;9.116;2023-04-15T11:30:56;4.33;;;3.70;;
769;SDS011;368;48.698;9.116;2023-04-15T11:33:24;4.20;;;3.83;;
769;SDS011;368;48.698;9.116;2023-04-15T11:35:51;5.00;;;4.23;;
769;SDS011;368;48.698;9.116;2023-04-15T11:38:20;6.03;;;4.00;;
769;SDS011;368;48.698;9.116;2023-04-15T11:40:47;3.83;;;3.23;;
769;SDS011;368;48.698;9.116;2023-04-15T11:43:16;4.30;;;3.90;;
769;SDS011;368;48.698;9.116;2023-04-15T11:45:49;4.10;;;3.80;;
769;SDS011;368;48.698;9.116;2023-04-15T11:48:17;4.10;;;3.63;;
769;SDS011;368;48.698;9.116;2023-04-15T11:50:45;4.43;;;3.27;;
769;SDS011;368;48.698;9.116;2023-04-15T11:53:17;4.17;;;2.40;;
769;SDS011;368;48.698;9.116;2023-04-15T11:55:46;9.97;;;4.03;;
769;SDS011;368;48.698;9.116;2023-04-15T11:58:15;6.17;;;3.50;;
769;SDS011;368;48.698;9.116;2023-04-15T12:00:47;3.93;;;3.30;;
769;SDS011;368;48.698;9.116;2023-04-15T12:03:17;5.57;;;3.17;;
769;SDS011;368;48.698;9.116;2023-04-15T12:08:52;5.03;;;3.27;;
769;SDS011;368;48.698;9.116;2023-04-15T12:11:36;5.40;;;2.70;;
769;SDS011;368;48.698;9.116;2023-04-15T12:14:08;4.43;;;3.00;;
769;SDS011;368;48.698;9.116;2023-04-15T12:16:37;5.90;;;3.07;;
769;SDS011;368;48.698;9.116;2023-04-15T12:19:07;3.33;;;2.47;;
769;SDS011;368;48.698;9.116;2023-04-15T12:21:36;3.10;;;2.63;;
769;SDS011;368;48.698;9.116;2023-04-15T12:24:04;5.37;;;2.83;;
769;SDS011;368;48.698;9.116;2023-04-15T12:26:34;3.57;;;3.13;;
769;SDS011;368;48.698;9.116;2023-04-15T12:29:08;3.50;;;3.20;;
769;SDS011;368;48.698;9.116;2023-04-15T12:31:45;4.73;;;3.13;;
769;SDS011;368;48.698;9.116;2023-04-15T12:34:14;4.90;;;3.70;;
769;SDS011;368;48.698;9.116;2023-04-15T12:36:40;5.07;;;3.73;;
769;SDS011;368;48.698;9.116;2023-04-15T12:39:07;6.33;;;3.70;;
769;SDS011;368;48.698;9.116;2023-04-15T12:41:34;5.47;;;4.03;;
769;SDS011;368;48.698;9.116;2023-04-15T12:44:03;5.27;;;3.23;;
769;SDS011;368;48.698;9.116;2023-04-15T12:46:30;8.17;;;4.90;;
769;SDS011;368;48.698;9.116;2023-04-15T12:48:57;6.70;;;3.77;;
769;SDS011;368;48.698;9.116;2023-04-15T12:51:24;5.20;;;4.27;;
769;SDS011;368;48.698;9.116;2023-04-15T12:53:52;4.53;;;4.10;;
769;SDS011;368;48.698;9.116;2023-04-15T12:56:19;6.23;;;5.00;;
769;SDS011;368;48.698;9.116;2023-04-15T12:58:48;5.90;;;4.40;;
769;SDS011;368;48.698;9.116;2023-04-15T13:01:15;9.63;;;4.20;;
769;SDS011;368;48.698;9.116;2023-04-15T13:03:42;5.83;;;5.00;;
769;SDS011;368;48.698;9.116;2023-04-15T13:06:09;5.43;;;4.20;;
769;SDS011;368;48.698;9.116;2023-04-15T13:08:36;5.13;;;4.53;;
769;SDS011;368;48.698;9.116;2023-04-15T13:11:03;4.30;;;3.90;;
769;SDS011;368;48.698;9.116;2023-04-15T13:13:30;3.93;;;3.63;;
769;SDS011;368;48.698;9.116;2023-04-15T13:15:58;4.97;;;4.30;;
769;SDS011;368;48.698;9.116;2023-04-15T13:18:25;5.57;;;3.90;;
769;SDS011;368;48.698;9.116;2023-04-15T13:20:53;4.60;;;4.13;;
769;SDS011;368;48.698;9.116;2023-04-15T13:23:20;5.27;;;4.00;;
769;SDS011;368;48.698;9.116;2023-04-15T13:25:47;6.90;;;3.70;;
769;SDS011;368;48.698;9.116;2023-04-15T13:28:14;5.43;;;4.23;;
769;SDS011;368;48.698;9.116;2023-04-15T13:30:40;5.83;;;4.13;;
769;SDS011;368;48.698;9.116;2023-04-15T13:33:09;7.27;;;3.60;;
769;SDS011;368;48.698;9.116;2023-04-15T13:35:36;4.43;;;4.03;;
769;SDS011;368;48.698;9.116;2023-04-15T13:38:04;3.90;;;3.10;;
769;SDS011;368;48.698;9.116;2023-04-15T13:40:31;3.80;;;3.17;;
769;SDS011;368;48.698;9.116;2023-04-15T13:42:58;5.00;;;3.10;;
769;SDS011;368;48.698;9.116;2023-04-15T13:45:26;3.57;;;3.10;;
769;SDS011;368;48.698;9.116;2023-04-15T13:47:53;4.53;;;2.90;;
769;SDS011;368;48.698;9.116;2023-04-15T13:50:22;5.23;;;2.60;;
769;SDS011;368;48.698;9.116;2023-04-15T13:52:49;4.97;;;3.60;;
769;SDS011;368;48.698;9.116;2023-04-15T13:55:15;3.73;;;3.33;;
769;SDS011;368;48.698;9.116;2023-04-15T13:57:43;6.33;;;3.37;;
769;SDS011;368;48.698;9.116;2023-04-15T14:00:11;3.00;;;2.80;;
769;SDS011;368;48.698;9.116;2023-04-15T14:02:38;4.50;;;2.93;;
769;SDS011;368;48.698;9.116;2023-04-15T14:05:05;3.87;;;3.47;;
769;SDS011;368;48.698;9.116;2023-04-15T14:07:34;3.63;;;2.50;;
769;SDS011;368;48.698;9.116;2023-04-15T14:10:01;4.50;;;3.30;;
769;SDS011;368;48.698;9.116;2023-04-15T14:12:28;2.90;;;2.60;;
769;SDS011;368;48.698;9.116;2023-04-15T14:14:55;2.70;;;2.50;;
769;SDS011;368;48.698;9.116;2023-04-15T14:17:22;3.60;;;2.87;;
769;SDS011;368;48.698;9.116;2023-04-15T14:19:51;2.30;;;2.10;;
769;SDS011;368;48.698;9.116;2023-04-15T14:22:17;4.30;;;2.60;;
769;SDS011;368;48.698;9.116;2023-04-15T14:24:45;3.10;;;2.57;;
769;SDS011;368;48.698;9.116;2023-04-15T14:27:13;2.50;;;2.30;;
769;SDS011;368;48.698;9.116;2023-04-15T14:29:40;3.73;;;2.07;;
769;SDS011;368;48.698;9.116;2023-04-15T14:32:07;2.60;;;1.10;;
769;SDS011;368;48.698;9.116;2023-04-15T14:34:34;5.67;;;1.73;;
769;SDS011;368;48.698;9.116;2023-04-15T14:37:01;2.70;;;1.40;;
769;SDS011;368;48.698;9.116;2023-04-15T14:39:29;2.73;;;1.70;;
769;SDS011;368;48.698;9.116;2023-04-15T14:41:57;1.90;;;1.17;;
769;SDS011;368;48.698;9.116;2023-04-15T14:44:24;3.23;;;3.00;;
769;SDS011;368;48.698;9.116;2023-04-15T14:46:51;2.93;;;1.80;;
769;SDS011;368;48.698;9.116;2023-04-15T14:49:17;4.13;;;1.90;;
769;SDS011;368;48.698;9.116;2023-04-15T14:51:45;3.47;;;3.17;;
769;SDS011;368;48.698;9.116;2023-04-15T14:54:11;3.03;;;2.43;;
769;SDS011;368;48.698;9.116;2023-04-15T14:56:38;3.73;;;2.50;;
769;SDS011;368;48.698;9.116;2023-04-15T14:59:06;2.90;;;2.60;;
769;SDS011;368;48.698;9.116;2023-04-15T15:01:33;2.53;;;2.33;;
769;SDS011;368;48.698;9.116;2023-04-15T15:04:00;2.87;;;2.47;;
769;SDS011;368;48.698;9.116;2023-04-15T15:06:27;2.90;;;2.70;;
769;SDS011;368;48.698;9.116;2023-04-15T15:08:54;2.60;;;2.40;;
769;SDS011;368;48.698;9.116;2023-04-15T15:11:20;3.67;;;3.17;;
769;SDS011;368;48.698;9.116;2023-04-15T15:13:47;3.23;;;2.70;;
769;SDS011;368;48.698;9.116;2023-04-15T15:16:15;3.17;;;2.57;;
769;SDS011;368;48.698;9.116;2023-04-15T15:18:42;3.40;;;2.93;;
769;SDS011;368;48.698;9.116;2023-04-15T15:21:09;2.53;;;2.33;;
769;SDS011;368;48.698;9.116;2023-04-15T15:23:36;4.03;;;2.80;;
769;SDS011;368;48.698;9.116;2023-04-15T15:26:03;4.40;;;3.73;;
769;SDS011;368;48.698;9.116;2023-04-15T15:28:30;5.33;;;3.13;;
769;SDS011;368;48.698;9.116;2023-04-15T15:30:57;7.57;;;3.00;;
769;SDS011;368;48.698;9.116;2023-04-15T15:33:25;4.03;;;2.80;;
769;SDS011;368;48.698;9.116;2023-04-15T15:35:52;5.60;;;4.80;;
769;SDS011;368;48.698;9.116;2023-04-15T15:38:19;3.20;;;2.90;;
769;SDS011;368;48.698;9.116;2023-04-15T15:40:47;3.20;;;2.90;;
769;SDS011;368;48.698;9.116;2023-04-15T15:43:14;3.53;;;3.23;;
769;SDS011;368;48.698;9.116;2023-04-15T15:45:41;3.53;;;3.00;;
769;SDS011;368;48.698;9.116;2023-04-15T15:48:08;5.10;;;3.83;;
769;SDS011;368;48.698;9.116;2023-04-15T15:50:36;5.97;;;5.37;;
769;SDS011;368;48.698;9.116;2023-04-15T15:53:03;3.63;;;3.33;;
769;SDS011;368;48.698;9.116;2023-04-15T15:55:30;3.10;;;2.80;;